sensor_id;sensor_type;location;lat;lon;timestamp;P1;durP1;ratioP1;P2;durP2;ratioP2
6823;SDS011;58633;49.470;11.004;2023-01-29T00:00:30;8.83;;;5.90;;
6823;SDS011;58633;49.470;11.004;2023-01-29T00:02:55;6.93;;;5.70;;
6823;SDS011;58633;49.470;11.004;2023-01-29T00:05:21;8.83;;;5.70;;
6823;SDS011;58633;49.470;11.004;2023-01-29T00:07:47;6.70;;;5.73;;
6823;SDS011;58633;49.470;11.004;2023-01-29T00:10:12;8.50;;;5.63;;
6823;SDS011;58633;49.470;11.004;2023-01-29T00:12:38;8.37;;;5.80;;
6823;SDS011;58633;49.470;11.004;2023-01-29T00:15:04;7.43;;;5.70;;
6823;SDS011;58633;49.470;11.004;2023-01-29T00:17:30;6.37;;;5.23;;
6823;SDS011;58633;49.470;11.004;2023-01-29T00:19:56;7.73;;;5.07;;
6823;SDS011;58633;49.470;11.004;2023-01-29T00:22:22;7.60;;;6.13;;
6823;SDS011;58633;49.470;11.004;2023-01-29T00:24:47;7.60;;;5.90;;
6823;SDS011;58633;49.470;11.004;2023-01-29T00:27:13;8.73;;;5.67;;
6823;SDS011;58633;49.470;11.004;2023-01-29T00:29:38;8.20;;;5.97;;
6823;SDS011;58633;49.470;11.004;2023-01-29T00:32:04;7.30;;;5.67;;
6823;SDS011;58633;49.470;11.004;2023-01-29T00:34:29;7.97;;;5.87;;
6823;SDS011;58633;49.470;11.004;2023-01-29T00:36:55;6.83;;;5.67;;
6823;SDS011;58633;49.470;11.004;2023-01-29T00:39:28;8.00;;;5.23;;
6823;SDS011;58633;49.470;11.004;2023-01-29T00:42:06;7.60;;;5.60;;
6823;SDS011;58633;49.470;11.004;2023-01-29T00:44:50;7.63;;;5.83;;
6823;SDS011;58633;49.470;11.004;2023-01-29T00:47:21;6.83;;;5.20;;
6823;SDS011;58633;49.470;11.004;2023-01-29T00:49:59;6.50;;;5.60;;
6823;SDS011;58633;49.470;11.004;2023-01-29T00:52:26;7.77;;;5.87;;
6823;SDS011;58633;49.470;11.004;2023-01-29T00:54:53;7.57;;;5.80;;
6823;SDS011;58633;49.470;11.004;2023-01-29T00:57:20;5.43;;;4.93;;
6823;SDS011;58633;49.470;11.004;2023-01-29T00:59:46;7.90;;;5.50;;
6823;SDS011;58633;49.470;11.004;2023-01-29T01:02:12;7.00;;;5.50;;
6823;SDS011;58633;49.470;11.004;2023-01-29T01:04:56;7.07;;;5.30;;
6823;SDS011;58633;49.470;11.004;2023-01-29T01:07:22;6.23;;;5.43;;
6823;SDS011;58633;49.470;11.004;2023-01-29T01:09:48;6.07;;;5.40;;
6823;SDS011;58633;49.470;11.004;2023-01-29T01:12:32;7.53;;;6.27;;
6823;SDS011;58633;49.470;11.004;2023-01-29T01:14:57;7.53;;;5.40;;
6823;SDS011;58633;49.470;11.004;2023-01-29T01:17:23;6.77;;;5.40;;
6823;SDS011;58633;49.470;11.004;2023-01-29T01:19:49;6.83;;;5.43;;
6823;SDS011;58633;49.470;11.004;2023-01-29T01:22:14;7.53;;;5.37;;
6823;SDS011;58633;49.470;11.004;2023-01-29T01:24:40;8.13;;;5.50;;
6823;SDS011;58633;49.470;11.004;2023-01-29T01:27:06;6.83;;;5.50;;
6823;SDS011;58633;49.470;11.004;2023-01-29T01:29:31;8.53;;;5.33;;
6823;SDS011;58633;49.470;11.004;2023-01-29T01:31:57;5.97;;;5.20;;
6823;SDS011;58633;49.470;11.004;2023-01-29T01:34:23;7.60;;;5.60;;
6823;SDS011;58633;49.470;11.004;2023-01-29T01:36:50;8.90;;;5.37;;
6823;SDS011;58633;49.470;11.004;2023-01-29T01:39:17;6.10;;;5.47;;
6823;SDS011;58633;49.470;11.004;2023-01-29T01:41:42;6.90;;;5.53;;
6823;SDS011;58633;49.470;11.004;2023-01-29T01:47:11;7.57;;;5.90;;
6823;SDS011;58633;49.470;11.004;2023-01-29T01:49:37;6.40;;;5.50;;
6823;SDS011;58633;49.470;11.004;2023-01-29T01:52:03;6.23;;;5.03;;
6823;SDS011;58633;49.470;11.004;2023-01-29T01:54:29;6.17;;;5.30;;
6823;SDS011;58633;49.470;11.004;2023-01-29T01:57:00;7.47;;;5.53;;
6823;SDS011;58633;49.470;11.004;2023-01-29T01:59:40;6.70;;;5.03;;
6823;SDS011;58633;49.470;11.004;2023-01-29T02:02:14;6.90;;;5.50;;
6823;SDS011;58633;49.470;11.004;2023-01-29T02:04:59;7.90;;;5.37;;
6823;SDS011;58633;49.470;11.004;2023-01-29T02:07:44;7.43;;;5.80;;
6823;SDS011;58633;49.470;11.004;2023-01-29T02:10:30;7.23;;;5.63;;
6823;SDS011;58633;49.470;11.004;2023-01-29T02:13:03;7.13;;;5.40;;
6823;SDS011;58633;49.470;11.004;2023-01-29T02:15:31;13.23;;;7.73;;
6823;SDS011;58633;49.470;11.004;2023-01-29T02:17:57;6.90;;;5.37;;
6823;SDS011;58633;49.470;11.004;2023-01-29T02:20:23;6.40;;;5.07;;
6823;SDS011;58633;49.470;11.004;2023-01-29T02:26:08;6.93;;;5.60;;
6823;SDS011;58633;49.470;11.004;2023-01-29T02:34:39;5.93;;;5.27;;
6823;SDS011;58633;49.470;11.004;2023-01-29T02:37:44;8.63;;;5.50;;
6823;SDS011;58633;49.470;11.004;2023-01-29T02:42:51;7.00;;;5.93;;
6823;SDS011;58633;49.470;11.004;2023-01-29T02:45:28;8.13;;;5.83;;
6823;SDS011;58633;49.470;11.004;2023-01-29T02:47:59;7.20;;;5.90;;
6823;SDS011;58633;49.470;11.004;2023-01-29T02:53:23;7.07;;;5.33;;
6823;SDS011;58633;49.470;11.004;2023-01-29T03:01:39;7.10;;;5.63;;
6823;SDS011;58633;49.470;11.004;2023-01-29T03:04:11;7.17;;;6.00;;
6823;SDS011;58633;49.470;11.004;2023-01-29T03:06:50;10.93;;;5.80;;
6823;SDS011;58633;49.470;11.004;2023-01-29T03:09:27;7.47;;;5.70;;
6823;SDS011;58633;49.470;11.004;2023-01-29T03:12:13;6.47;;;5.70;;
6823;SDS011;58633;49.470;11.004;2023-01-29T03:14:53;7.63;;;5.83;;
6823;SDS011;58633;49.470;11.004;2023-01-29T03:17:37;8.03;;;5.63;;
6823;SDS011;58633;49.470;11.004;2023-01-29T03:20:06;7.23;;;5.77;;
6823;SDS011;58633;49.470;11.004;2023-01-29T03:22:37;7.10;;;5.67;;
6823;SDS011;58633;49.470;11.004;2023-01-29T03:25:04;9.27;;;6.10;;
6823;SDS011;58633;49.470;11.004;2023-01-29T03:27:51;7.00;;;5.77;;
6823;SDS011;58633;49.470;11.004;2023-01-29T03:30:46;7.00;;;5.80;;
6823;SDS011;58633;49.470;11.004;2023-01-29T03:33:38;9.60;;;5.90;;
6823;SDS011;58633;49.470;11.004;2023-01-29T03:36:16;6.90;;;5.40;;
6823;SDS011;58633;49.470;11.004;2023-01-29T03:39:02;7.10;;;5.87;;
6823;SDS011;58633;49.470;11.004;2023-01-29T03:41:31;8.60;;;5.97;;
6823;SDS011;58633;49.470;11.004;2023-01-29T03:47:22;6.10;;;5.50;;
6823;SDS011;58633;49.470;11.004;2023-01-29T03:50:18;8.50;;;5.70;;
6823;SDS011;58633;49.470;11.004;2023-01-29T03:53:16;6.17;;;5.53;;
6823;SDS011;58633;49.470;11.004;2023-01-29T03:56:13;6.37;;;5.37;;
6823;SDS011;58633;49.470;11.004;2023-01-29T04:01:41;7.90;;;5.40;;
6823;SDS011;58633;49.470;11.004;2023-01-29T04:04:15;7.83;;;5.60;;
6823;SDS011;58633;49.470;11.004;2023-01-29T04:06:51;7.53;;;5.73;;
6823;SDS011;58633;49.470;11.004;2023-01-29T04:09:21;7.07;;;5.80;;
6823;SDS011;58633;49.470;11.004;2023-01-29T04:11:58;7.53;;;5.70;;
6823;SDS011;58633;49.470;11.004;2023-01-29T04:14:31;7.67;;;5.70;;
6823;SDS011;58633;49.470;11.004;2023-01-29T04:16:57;9.07;;;6.07;;
6823;SDS011;58633;49.470;11.004;2023-01-29T04:19:27;6.97;;;6.00;;
6823;SDS011;58633;49.470;11.004;2023-01-29T04:21:56;8.13;;;5.90;;
6823;SDS011;58633;49.470;11.004;2023-01-29T04:24:27;6.63;;;5.87;;
6823;SDS011;58633;49.470;11.004;2023-01-29T04:27:04;7.87;;;5.63;;
6823;SDS011;58633;49.470;11.004;2023-01-29T04:32:40;7.03;;;5.67;;
6823;SDS011;58633;49.470;11.004;2023-01-29T04:38:36;6.83;;;5.43;;
6823;SDS011;58633;49.470;11.004;2023-01-29T04:52:32;7.50;;;5.77;;
6823;SDS011;58633;49.470;11.004;2023-01-29T04:55:18;7.90;;;6.17;;
6823;SDS011;58633;49.470;11.004;2023-01-29T04:57:59;8.33;;;5.80;;
6823;SDS011;58633;49.470;11.004;2023-01-29T05:00:39;9.63;;;6.20;;
6823;SDS011;58633;49.470;11.004;2023-01-29T05:03:06;9.37;;;6.10;;
6823;SDS011;58633;49.470;11.004;2023-01-29T05:05:33;8.20;;;6.57;;
6823;SDS011;58633;49.470;11.004;2023-01-29T05:08:00;8.93;;;6.77;;
6823;SDS011;58633;49.470;11.004;2023-01-29T05:10:27;8.50;;;6.37;;
6823;SDS011;58633;49.470;11.004;2023-01-29T05:12:55;9.07;;;6.37;;
6823;SDS011;58633;49.470;11.004;2023-01-29T05:15:25;9.00;;;6.67;;
6823;SDS011;58633;49.470;11.004;2023-01-29T05:18:01;8.10;;;5.83;;
6823;SDS011;58633;49.470;11.004;2023-01-29T05:20:29;9.10;;;6.37;;
6823;SDS011;58633;49.470;11.004;2023-01-29T05:22:57;9.57;;;6.00;;
6823;SDS011;58633;49.470;11.004;2023-01-29T05:25:23;8.50;;;6.30;;
6823;SDS011;58633;49.470;11.004;2023-01-29T05:27:51;7.63;;;6.13;;
6823;SDS011;58633;49.470;11.004;2023-01-29T05:30:53;10.13;;;6.80;;
6823;SDS011;58633;49.470;11.004;2023-01-29T05:33:27;8.73;;;6.40;;
6823;SDS011;58633;49.470;11.004;2023-01-29T05:35:54;10.03;;;6.20;;
6823;SDS011;58633;49.470;11.004;2023-01-29T05:38:20;8.43;;;6.43;;
6823;SDS011;58633;49.470;11.004;2023-01-29T05:40:47;8.40;;;5.97;;
6823;SDS011;58633;49.470;11.004;2023-01-29T05:43:14;9.67;;;7.00;;
6823;SDS011;58633;49.470;11.004;2023-01-29T05:45:53;8.50;;;6.90;;
6823;SDS011;58633;49.470;11.004;2023-01-29T05:48:20;10.47;;;6.50;;
6823;SDS011;58633;49.470;11.004;2023-01-29T05:50:47;8.20;;;6.40;;
6823;SDS011;58633;49.470;11.004;2023-01-29T05:53:12;8.67;;;6.80;;
6823;SDS011;58633;49.470;11.004;2023-01-29T05:55:38;7.40;;;6.47;;
6823;SDS011;58633;49.470;11.004;2023-01-29T05:58:03;8.40;;;6.10;;
6823;SDS011;58633;49.470;11.004;2023-01-29T06:00:29;9.67;;;7.03;;
6823;SDS011;58633;49.470;11.004;2023-01-29T06:02:54;9.97;;;7.13;;
6823;SDS011;58633;49.470;11.004;2023-01-29T06:05:20;12.77;;;7.43;;
6823;SDS011;58633;49.470;11.004;2023-01-29T06:07:46;11.63;;;6.80;;
6823;SDS011;58633;49.470;11.004;2023-01-29T06:10:15;9.53;;;7.07;;
6823;SDS011;58633;49.470;11.004;2023-01-29T06:12:41;7.47;;;5.73;;
6823;SDS011;58633;49.470;11.004;2023-01-29T06:15:08;8.10;;;6.63;;
6823;SDS011;58633;49.470;11.004;2023-01-29T06:17:34;8.90;;;6.77;;
6823;SDS011;58633;49.470;11.004;2023-01-29T06:20:00;9.00;;;6.80;;
6823;SDS011;58633;49.470;11.004;2023-01-29T06:22:25;9.23;;;6.43;;
6823;SDS011;58633;49.470;11.004;2023-01-29T06:24:51;8.27;;;6.77;;
6823;SDS011;58633;49.470;11.004;2023-01-29T06:27:16;6.90;;;6.20;;
6823;SDS011;58633;49.470;11.004;2023-01-29T06:29:42;9.07;;;6.20;;
6823;SDS011;58633;49.470;11.004;2023-01-29T06:32:07;8.20;;;6.27;;
6823;SDS011;58633;49.470;11.004;2023-01-29T06:34:33;7.90;;;6.30;;
6823;SDS011;58633;49.470;11.004;2023-01-29T06:36:59;8.10;;;6.60;;
6823;SDS011;58633;49.470;11.004;2023-01-29T06:39:24;9.80;;;6.43;;
6823;SDS011;58633;49.470;11.004;2023-01-29T06:41:50;8.57;;;6.20;;
6823;SDS011;58633;49.470;11.004;2023-01-29T06:44:15;8.30;;;6.37;;
6823;SDS011;58633;49.470;11.004;2023-01-29T06:46:41;7.90;;;6.57;;
6823;SDS011;58633;49.470;11.004;2023-01-29T06:49:06;8.57;;;6.40;;
6823;SDS011;58633;49.470;11.004;2023-01-29T06:51:32;9.37;;;6.00;;
6823;SDS011;58633;49.470;11.004;2023-01-29T06:53:57;8.80;;;6.97;;
6823;SDS011;58633;49.470;11.004;2023-01-29T06:56:23;14.17;;;8.20;;
6823;SDS011;58633;49.470;11.004;2023-01-29T06:58:49;10.23;;;6.93;;
6823;SDS011;58633;49.470;11.004;2023-01-29T07:01:14;8.83;;;7.20;;
6823;SDS011;58633;49.470;11.004;2023-01-29T07:03:40;9.60;;;6.67;;
6823;SDS011;58633;49.470;11.004;2023-01-29T07:06:07;9.03;;;6.93;;
6823;SDS011;58633;49.470;11.004;2023-01-29T07:08:37;7.90;;;6.90;;
6823;SDS011;58633;49.470;11.004;2023-01-29T07:11:03;7.73;;;5.97;;
6823;SDS011;58633;49.470;11.004;2023-01-29T07:13:30;7.97;;;6.40;;
6823;SDS011;58633;49.470;11.004;2023-01-29T07:16:02;7.80;;;5.83;;
6823;SDS011;58633;49.470;11.004;2023-01-29T07:18:29;7.00;;;6.03;;
6823;SDS011;58633;49.470;11.004;2023-01-29T07:20:55;10.07;;;6.93;;
6823;SDS011;58633;49.470;11.004;2023-01-29T07:23:21;7.80;;;6.03;;
6823;SDS011;58633;49.470;11.004;2023-01-29T07:25:47;9.10;;;6.40;;
6823;SDS011;58633;49.470;11.004;2023-01-29T07:28:14;7.07;;;6.37;;
6823;SDS011;58633;49.470;11.004;2023-01-29T07:30:40;8.73;;;7.00;;
6823;SDS011;58633;49.470;11.004;2023-01-29T07:33:06;9.37;;;6.90;;
6823;SDS011;58633;49.470;11.004;2023-01-29T07:35:36;10.43;;;7.20;;
6823;SDS011;58633;49.470;11.004;2023-01-29T07:38:03;7.23;;;6.13;;
6823;SDS011;58633;49.470;11.004;2023-01-29T07:40:29;7.20;;;6.30;;
6823;SDS011;58633;49.470;11.004;2023-01-29T07:42:58;8.73;;;6.80;;
6823;SDS011;58633;49.470;11.004;2023-01-29T07:45:24;8.40;;;6.43;;
6823;SDS011;58633;49.470;11.004;2023-01-29T07:47:51;7.37;;;6.57;;
6823;SDS011;58633;49.470;11.004;2023-01-29T07:50:18;6.90;;;6.07;;
6823;SDS011;58633;49.470;11.004;2023-01-29T07:52:43;8.30;;;6.50;;
6823;SDS011;58633;49.470;11.004;2023-01-29T07:55:09;8.53;;;6.43;;
6823;SDS011;58633;49.470;11.004;2023-01-29T07:57:34;9.03;;;6.57;;
6823;SDS011;58633;49.470;11.004;2023-01-29T08:00:00;8.43;;;6.80;;
6823;SDS011;58633;49.470;11.004;2023-01-29T08:02:26;8.93;;;6.70;;
6823;SDS011;58633;49.470;11.004;2023-01-29T08:04:51;8.03;;;6.40;;
6823;SDS011;58633;49.470;11.004;2023-01-29T08:07:17;7.80;;;6.50;;
6823;SDS011;58633;49.470;11.004;2023-01-29T08:09:42;8.63;;;7.07;;
6823;SDS011;58633;49.470;11.004;2023-01-29T08:12:08;9.37;;;7.53;;
6823;SDS011;58633;49.470;11.004;2023-01-29T08:14:34;9.03;;;7.27;;
6823;SDS011;58633;49.470;11.004;2023-01-29T08:16:59;8.47;;;6.47;;
6823;SDS011;58633;49.470;11.004;2023-01-29T08:19:25;10.30;;;7.27;;
6823;SDS011;58633;49.470;11.004;2023-01-29T08:21:50;8.73;;;7.07;;
6823;SDS011;58633;49.470;11.004;2023-01-29T08:24:16;10.67;;;7.20;;
6823;SDS011;58633;49.470;11.004;2023-01-29T08:26:41;8.53;;;7.30;;
6823;SDS011;58633;49.470;11.004;2023-01-29T08:29:07;9.30;;;7.10;;
6823;SDS011;58633;49.470;11.004;2023-01-29T08:31:32;9.90;;;7.73;;
6823;SDS011;58633;49.470;11.004;2023-01-29T08:33:59;9.80;;;8.07;;
6823;SDS011;58633;49.470;11.004;2023-01-29T08:36:24;13.33;;;7.30;;
6823;SDS011;58633;49.470;11.004;2023-01-29T08:38:50;8.90;;;7.23;;
6823;SDS011;58633;49.470;11.004;2023-01-29T08:41:15;8.87;;;7.27;;
6823;SDS011;58633;49.470;11.004;2023-01-29T08:43:41;10.33;;;7.63;;
6823;SDS011;58633;49.470;11.004;2023-01-29T08:46:07;9.17;;;7.47;;
6823;SDS011;58633;49.470;11.004;2023-01-29T08:48:32;8.73;;;7.40;;
6823;SDS011;58633;49.470;11.004;2023-01-29T08:50:59;11.00;;;8.60;;
6823;SDS011;58633;49.470;11.004;2023-01-29T08:53:26;12.30;;;8.30;;
6823;SDS011;58633;49.470;11.004;2023-01-29T08:55:52;9.33;;;7.03;;
6823;SDS011;58633;49.470;11.004;2023-01-29T08:58:18;9.13;;;7.20;;
6823;SDS011;58633;49.470;11.004;2023-01-29T09:00:44;9.20;;;7.53;;
6823;SDS011;58633;49.470;11.004;2023-01-29T09:03:09;11.23;;;8.40;;
6823;SDS011;58633;49.470;11.004;2023-01-29T09:05:35;14.47;;;7.83;;
6823;SDS011;58633;49.470;11.004;2023-01-29T09:08:03;11.33;;;7.90;;
6823;SDS011;58633;49.470;11.004;2023-01-29T09:10:29;11.10;;;7.70;;
6823;SDS011;58633;49.470;11.004;2023-01-29T09:12:54;9.43;;;7.60;;
6823;SDS011;58633;49.470;11.004;2023-01-29T09:15:20;8.73;;;7.20;;
6823;SDS011;58633;49.470;11.004;2023-01-29T09:17:46;13.17;;;8.87;;
6823;SDS011;58633;49.470;11.004;2023-01-29T09:20:13;11.90;;;8.00;;
6823;SDS011;58633;49.470;11.004;2023-01-29T09:22:39;9.97;;;8.00;;
6823;SDS011;58633;49.470;11.004;2023-01-29T09:25:05;9.63;;;7.57;;
6823;SDS011;58633;49.470;11.004;2023-01-29T09:27:31;10.40;;;7.70;;
6823;SDS011;58633;49.470;11.004;2023-01-29T09:29:57;10.03;;;7.70;;
6823;SDS011;58633;49.470;11.004;2023-01-29T09:32:22;8.97;;;7.07;;
6823;SDS011;58633;49.470;11.004;2023-01-29T09:34:48;10.90;;;8.20;;
6823;SDS011;58633;49.470;11.004;2023-01-29T09:37:13;14.97;;;9.77;;
6823;SDS011;58633;49.470;11.004;2023-01-29T09:39:41;11.00;;;7.53;;
6823;SDS011;58633;49.470;11.004;2023-01-29T09:42:27;13.07;;;9.10;;
6823;SDS011;58633;49.470;11.004;2023-01-29T09:45:14;16.50;;;10.17;;
6823;SDS011;58633;49.470;11.004;2023-01-29T09:47:51;8.30;;;6.80;;
6823;SDS011;58633;49.470;11.004;2023-01-29T09:50:25;13.97;;;8.83;;
6823;SDS011;58633;49.470;11.004;2023-01-29T09:55:31;10.93;;;7.87;;
6823;SDS011;58633;49.470;11.004;2023-01-29T09:58:04;11.60;;;7.57;;
6823;SDS011;58633;49.470;11.004;2023-01-29T10:06:23;15.97;;;9.27;;
6823;SDS011;58633;49.470;11.004;2023-01-29T10:09:16;10.03;;;7.33;;
6823;SDS011;58633;49.470;11.004;2023-01-29T10:20:13;10.57;;;7.57;;
6823;SDS011;58633;49.470;11.004;2023-01-29T10:25:45;9.03;;;6.97;;
6823;SDS011;58633;49.470;11.004;2023-01-29T10:28:16;8.93;;;7.27;;
6823;SDS011;58633;49.470;11.004;2023-01-29T10:30:45;12.40;;;7.60;;
6823;SDS011;58633;49.470;11.004;2023-01-29T10:33:17;10.23;;;7.37;;
6823;SDS011;58633;49.470;11.004;2023-01-29T10:35:50;10.10;;;7.47;;
6823;SDS011;58633;49.470;11.004;2023-01-29T10:38:33;10.27;;;6.57;;
6823;SDS011;58633;49.470;11.004;2023-01-29T10:41:13;14.23;;;8.17;;
6823;SDS011;58633;49.470;11.004;2023-01-29T10:44:24;8.40;;;6.87;;
6823;SDS011;58633;49.470;11.004;2023-01-29T10:47:03;10.73;;;7.53;;
6823;SDS011;58633;49.470;11.004;2023-01-29T10:52:36;8.70;;;6.80;;
6823;SDS011;58633;49.470;11.004;2023-01-29T10:58:10;11.57;;;8.00;;
6823;SDS011;58633;49.470;11.004;2023-01-29T11:00:45;11.63;;;7.60;;
6823;SDS011;58633;49.470;11.004;2023-01-29T11:05:40;10.80;;;7.50;;
6823;SDS011;58633;49.470;11.004;2023-01-29T11:08:11;10.67;;;8.10;;
6823;SDS011;58633;49.470;11.004;2023-01-29T11:10:42;12.20;;;8.07;;
6823;SDS011;58633;49.470;11.004;2023-01-29T11:13:25;11.67;;;8.10;;
6823;SDS011;58633;49.470;11.004;2023-01-29T11:15:56;12.07;;;7.87;;
6823;SDS011;58633;49.470;11.004;2023-01-29T11:18:22;11.33;;;8.20;;
6823;SDS011;58633;49.470;11.004;2023-01-29T11:20:58;10.43;;;7.90;;
6823;SDS011;58633;49.470;11.004;2023-01-29T11:25:57;12.97;;;8.60;;
6823;SDS011;58633;49.470;11.004;2023-01-29T11:28:42;10.17;;;7.63;;
6823;SDS011;58633;49.470;11.004;2023-01-29T11:31:24;9.53;;;7.57;;
6823;SDS011;58633;49.470;11.004;2023-01-29T11:34:21;10.37;;;7.87;;
6823;SDS011;58633;49.470;11.004;2023-01-29T11:36:55;13.07;;;8.10;;
6823;SDS011;58633;49.470;11.004;2023-01-29T11:39:22;10.00;;;7.70;;
6823;SDS011;58633;49.470;11.004;2023-01-29T11:44:40;9.73;;;7.60;;
6823;SDS011;58633;49.470;11.004;2023-01-29T11:47:10;12.37;;;8.03;;
6823;SDS011;58633;49.470;11.004;2023-01-29T11:49:58;12.30;;;8.30;;
6823;SDS011;58633;49.470;11.004;2023-01-29T11:52:36;12.57;;;8.27;;
6823;SDS011;58633;49.470;11.004;2023-01-29T11:55:10;10.33;;;8.00;;
6823;SDS011;58633;49.470;11.004;2023-01-29T11:57:47;10.70;;;7.90;;
6823;SDS011;58633;49.470;11.004;2023-01-29T12:00:26;10.33;;;7.63;;
6823;SDS011;58633;49.470;11.004;2023-01-29T12:05:24;10.40;;;7.50;;
6823;SDS011;58633;49.470;11.004;2023-01-29T12:07:52;10.43;;;7.63;;
6823;SDS011;58633;49.470;11.004;2023-01-29T12:10:33;10.03;;;7.87;;
6823;SDS011;58633;49.470;11.004;2023-01-29T12:15:35;11.03;;;7.80;;
6823;SDS011;58633;49.470;11.004;2023-01-29T12:18:07;10.33;;;7.50;;
6823;SDS011;58633;49.470;11.004;2023-01-29T12:20:41;10.47;;;7.70;;
6823;SDS011;58633;49.470;11.004;2023-01-29T12:23:30;11.83;;;7.77;;
6823;SDS011;58633;49.470;11.004;2023-01-29T12:26:11;9.57;;;7.40;;
6823;SDS011;58633;49.470;11.004;2023-01-29T12:28:41;9.63;;;7.17;;
6823;SDS011;58633;49.470;11.004;2023-01-29T12:31:39;10.50;;;8.13;;
6823;SDS011;58633;49.470;11.004;2023-01-29T12:34:21;12.80;;;8.23;;
6823;SDS011;58633;49.470;11.004;2023-01-29T12:37:12;14.10;;;8.30;;
6823;SDS011;58633;49.470;11.004;2023-01-29T12:39:52;11.03;;;7.80;;
6823;SDS011;58633;49.470;11.004;2023-01-29T12:42:19;10.90;;;7.90;;
6823;SDS011;58633;49.470;11.004;2023-01-29T12:45:06;9.83;;;7.50;;
6823;SDS011;58633;49.470;11.004;2023-01-29T12:50:27;11.80;;;7.83;;
6823;SDS011;58633;49.470;11.004;2023-01-29T12:55:37;11.43;;;8.00;;
6823;SDS011;58633;49.470;11.004;2023-01-29T12:58:19;10.10;;;7.60;;
6823;SDS011;58633;49.470;11.004;2023-01-29T13:01:46;11.93;;;8.00;;
6823;SDS011;58633;49.470;11.004;2023-01-29T13:03:51;10.10;;;7.43;;
6823;SDS011;58633;49.470;11.004;2023-01-29T13:06:49;11.00;;;7.57;;
6823;SDS011;58633;49.470;11.004;2023-01-29T13:09:20;10.23;;;7.67;;
6823;SDS011;58633;49.470;11.004;2023-01-29T13:11:55;8.97;;;7.03;;
6823;SDS011;58633;49.470;11.004;2023-01-29T13:17:04;9.03;;;6.67;;
6823;SDS011;58633;49.470;11.004;2023-01-29T13:19:37;12.33;;;7.33;;
6823;SDS011;58633;49.470;11.004;2023-01-29T13:22:12;10.03;;;7.10;;
6823;SDS011;58633;49.470;11.004;2023-01-29T13:24:43;8.93;;;6.83;;
6823;SDS011;58633;49.470;11.004;2023-01-29T13:27:15;9.33;;;6.67;;
6823;SDS011;58633;49.470;11.004;2023-01-29T13:29:46;8.40;;;6.30;;
6823;SDS011;58633;49.470;11.004;2023-01-29T13:32:17;7.83;;;6.40;;
6823;SDS011;58633;49.470;11.004;2023-01-29T13:34:55;9.00;;;6.30;;
6823;SDS011;58633;49.470;11.004;2023-01-29T13:37:34;7.50;;;6.23;;
6823;SDS011;58633;49.470;11.004;2023-01-29T13:40:05;7.87;;;6.30;;
6823;SDS011;58633;49.470;11.004;2023-01-29T13:42:46;7.43;;;6.13;;
6823;SDS011;58633;49.470;11.004;2023-01-29T13:45:28;10.37;;;6.70;;
6823;SDS011;58633;49.470;11.004;2023-01-29T13:48:06;7.20;;;6.47;;
6823;SDS011;58633;49.470;11.004;2023-01-29T13:50:38;7.60;;;6.10;;
6823;SDS011;58633;49.470;11.004;2023-01-29T13:53:07;7.70;;;6.20;;
6823;SDS011;58633;49.470;11.004;2023-01-29T13:55:43;9.40;;;6.57;;
6823;SDS011;58633;49.470;11.004;2023-01-29T13:58:16;9.50;;;6.50;;
6823;SDS011;58633;49.470;11.004;2023-01-29T14:01:02;8.77;;;6.30;;
6823;SDS011;58633;49.470;11.004;2023-01-29T14:13:46;7.90;;;6.27;;
6823;SDS011;58633;49.470;11.004;2023-01-29T14:18:56;8.97;;;6.63;;
6823;SDS011;58633;49.470;11.004;2023-01-29T14:21:24;9.40;;;6.97;;
6823;SDS011;58633;49.470;11.004;2023-01-29T14:23:58;9.90;;;6.30;;
6823;SDS011;58633;49.470;11.004;2023-01-29T14:29:17;7.77;;;6.70;;
6823;SDS011;58633;49.470;11.004;2023-01-29T14:31:48;8.90;;;6.10;;
6823;SDS011;58633;49.470;11.004;2023-01-29T14:34:25;10.50;;;6.47;;
6823;SDS011;58633;49.470;11.004;2023-01-29T14:39:46;9.70;;;6.73;;
6823;SDS011;58633;49.470;11.004;2023-01-29T14:42:23;10.33;;;6.70;;
6823;SDS011;58633;49.470;11.004;2023-01-29T14:44:55;12.20;;;7.07;;
6823;SDS011;58633;49.470;11.004;2023-01-29T14:52:23;10.43;;;6.73;;
6823;SDS011;58633;49.470;11.004;2023-01-29T14:54:56;6.83;;;6.00;;
6823;SDS011;58633;49.470;11.004;2023-01-29T14:57:24;6.63;;;5.43;;
6823;SDS011;58633;49.470;11.004;2023-01-29T14:59:54;7.70;;;6.10;;
6823;SDS011;58633;49.470;11.004;2023-01-29T15:02:26;8.47;;;6.40;;
6823;SDS011;58633;49.470;11.004;2023-01-29T15:05:00;7.07;;;5.90;;
6823;SDS011;58633;49.470;11.004;2023-01-29T15:07:33;8.30;;;6.07;;
6823;SDS011;58633;49.470;11.004;2023-01-29T15:12:55;8.47;;;6.20;;
6823;SDS011;58633;49.470;11.004;2023-01-29T15:18:04;8.03;;;6.37;;
6823;SDS011;58633;49.470;11.004;2023-01-29T15:20:37;8.30;;;6.27;;
6823;SDS011;58633;49.470;11.004;2023-01-29T15:23:24;11.97;;;7.33;;
6823;SDS011;58633;49.470;11.004;2023-01-29T15:25:52;11.10;;;7.17;;
6823;SDS011;58633;49.470;11.004;2023-01-29T15:28:20;8.63;;;6.63;;
6823;SDS011;58633;49.470;11.004;2023-01-29T15:30:48;11.43;;;7.53;;
6823;SDS011;58633;49.470;11.004;2023-01-29T15:33:17;8.57;;;6.37;;
6823;SDS011;58633;49.470;11.004;2023-01-29T15:35:43;10.43;;;6.50;;
6823;SDS011;58633;49.470;11.004;2023-01-29T15:38:18;10.20;;;7.10;;
6823;SDS011;58633;49.470;11.004;2023-01-29T15:40:52;7.63;;;6.27;;
6823;SDS011;58633;49.470;11.004;2023-01-29T15:43:22;10.40;;;6.67;;
6823;SDS011;58633;49.470;11.004;2023-01-29T15:45:50;10.43;;;7.00;;
6823;SDS011;58633;49.470;11.004;2023-01-29T15:48:18;8.03;;;6.33;;
6823;SDS011;58633;49.470;11.004;2023-01-29T15:50:48;8.10;;;6.13;;
6823;SDS011;58633;49.470;11.004;2023-01-29T15:53:19;8.47;;;6.67;;
6823;SDS011;58633;49.470;11.004;2023-01-29T15:55:50;11.03;;;7.30;;
6823;SDS011;58633;49.470;11.004;2023-01-29T15:58:19;10.70;;;7.00;;
6823;SDS011;58633;49.470;11.004;2023-01-29T16:00:52;9.90;;;6.53;;
6823;SDS011;58633;49.470;11.004;2023-01-29T16:03:21;9.50;;;6.27;;
6823;SDS011;58633;49.470;11.004;2023-01-29T16:05:48;9.63;;;6.27;;
6823;SDS011;58633;49.470;11.004;2023-01-29T16:08:15;8.23;;;7.10;;
6823;SDS011;58633;49.470;11.004;2023-01-29T16:10:42;11.03;;;7.10;;
6823;SDS011;58633;49.470;11.004;2023-01-29T16:13:17;8.67;;;7.33;;
6823;SDS011;58633;49.470;11.004;2023-01-29T16:15:53;9.13;;;6.37;;
6823;SDS011;58633;49.470;11.004;2023-01-29T16:18:34;9.67;;;7.27;;
6823;SDS011;58633;49.470;11.004;2023-01-29T16:21:05;11.47;;;7.20;;
6823;SDS011;58633;49.470;11.004;2023-01-29T16:23:44;10.37;;;7.43;;
6823;SDS011;58633;49.470;11.004;2023-01-29T16:26:19;13.37;;;7.93;;
6823;SDS011;58633;49.470;11.004;2023-01-29T16:28:50;13.73;;;8.00;;
6823;SDS011;58633;49.470;11.004;2023-01-29T16:31:24;12.80;;;8.70;;
6823;SDS011;58633;49.470;11.004;2023-01-29T16:33:55;13.87;;;8.57;;
6823;SDS011;58633;49.470;11.004;2023-01-29T16:36:23;15.53;;;9.83;;
6823;SDS011;58633;49.470;11.004;2023-01-29T16:38:55;15.77;;;9.70;;
6823;SDS011;58633;49.470;11.004;2023-01-29T16:46:19;16.17;;;9.50;;
6823;SDS011;58633;49.470;11.004;2023-01-29T16:48:50;16.87;;;11.13;;
6823;SDS011;58633;49.470;11.004;2023-01-29T16:54:06;17.20;;;10.80;;
6823;SDS011;58633;49.470;11.004;2023-01-29T16:56:35;15.07;;;10.00;;
6823;SDS011;58633;49.470;11.004;2023-01-29T16:59:03;13.37;;;9.53;;
6823;SDS011;58633;49.470;11.004;2023-01-29T17:01:30;14.57;;;9.60;;
6823;SDS011;58633;49.470;11.004;2023-01-29T17:04:09;15.03;;;9.70;;
6823;SDS011;58633;49.470;11.004;2023-01-29T17:06:39;14.80;;;8.97;;
6823;SDS011;58633;49.470;11.004;2023-01-29T17:09:15;17.40;;;10.93;;
6823;SDS011;58633;49.470;11.004;2023-01-29T17:11:48;18.90;;;11.23;;
6823;SDS011;58633;49.470;11.004;2023-01-29T17:14:20;14.73;;;9.83;;
6823;SDS011;58633;49.470;11.004;2023-01-29T17:16:49;28.70;;;15.63;;
6823;SDS011;58633;49.470;11.004;2023-01-29T17:19:18;17.93;;;10.57;;